Time;durP1;ratioP1;P1;durP2;ratioP2;P2;SDS_P1;SDS_P2;PMS_P1;PMS_P2;Temp;Humidity;BMP_temperature;BMP_pressure;BME280_temperature;BME280_humidity;BME280_pressure;Samples;Min_cycle;Max_cycle;Signal;HPM_P1;HPM_P2
2022/12/10 00:01:22;;;;;;;50.42;29.00;;;-1.10;99.90;;;;;;5058443;28;20086;-56
2022/12/10 00:03:47;;;;;;;51.17;29.92;;;-1.10;99.90;;;;;;5067185;28;20119;-54
2022/12/10 00:06:16;;;;;;;47.13;30.00;;;-1.10;99.90;;;;;;5067184;28;20151;-54
2022/12/10 00:08:42;;;;;;;47.45;29.63;;;-1.10;99.90;;;;;;5067638;28;20051;-54
2022/12/10 00:11:10;;;;;;;51.50;28.77;;;-1.10;99.90;;;;;;5069940;28;20409;-54
2022/12/10 00:13:37;;;;;;;52.90;30.10;;;-1.10;99.90;;;;;;5068875;28;20115;-53
2022/12/10 00:16:05;;;;;;;54.40;29.77;;;-1.10;99.90;;;;;;5060277;28;20052;-55
2022/12/10 00:18:31;;;;;;;51.42;30.38;;;-1.00;99.90;;;;;;5059130;28;20485;-56
2022/12/10 00:20:57;;;;;;;50.20;28.80;;;-1.00;99.90;;;;;;5069833;28;20036;-53
2022/12/10 00:23:23;;;;;;;51.60;28.87;;;-1.00;99.90;;;;;;5067691;28;20043;-52
2022/12/10 00:25:48;;;;;;;53.77;32.50;;;-1.00;99.90;;;;;;5068388;28;20052;-53
2022/12/10 00:28:14;;;;;;;49.83;29.33;;;-1.00;99.90;;;;;;5069571;28;20783;-54
2022/12/10 00:30:40;;;;;;;48.03;28.27;;;-1.00;99.90;;;;;;5059833;28;20045;-56
2022/12/10 00:33:05;;;;;;;51.33;29.40;;;-1.00;99.90;;;;;;5049120;28;20065;-56
2022/12/10 00:35:34;;;;;;;52.80;31.03;;;-1.10;99.90;;;;;;5049455;28;20091;-55
2022/12/10 00:38:00;;;;;;;55.38;31.92;;;-1.10;99.90;;;;;;5050788;28;20048;-57
2022/12/10 00:40:25;;;;;;;51.43;29.00;;;-1.10;99.90;;;;;;5049486;28;20278;-51
2022/12/10 00:42:51;;;;;;;48.63;29.20;;;-1.10;99.90;;;;;;5049408;28;20041;-59
2022/12/10 00:45:16;;;;;;;47.77;29.60;;;-1.10;99.90;;;;;;5049212;28;20041;-56
2022/12/10 00:47:42;;;;;;;59.67;31.67;;;-1.10;99.90;;;;;;5057185;28;20113;-55
2022/12/10 00:50:08;;;;;;;55.20;30.57;;;-1.20;99.90;;;;;;5069363;28;20037;-55
2022/12/10 00:52:33;;;;;;;56.77;30.77;;;-1.20;99.90;;;;;;5060981;28;20039;-51
2022/12/10 00:54:59;;;;;;;55.03;31.43;;;-1.20;99.90;;;;;;5048680;28;20483;-54
2022/12/10 00:57:24;;;;;;;58.93;33.80;;;-1.20;99.90;;;;;;5050334;28;20439;-51
2022/12/10 00:59:50;;;;;;;61.70;33.30;;;-1.10;99.90;;;;;;5050274;28;20489;-52
2022/12/10 01:02:15;;;;;;;63.53;34.53;;;-1.10;99.90;;;;;;5054582;28;20049;-56
2022/12/10 01:04:41;;;;;;;61.83;33.57;;;-1.10;99.90;;;;;;5067171;28;20040;-53
2022/12/10 01:07:06;;;;;;;57.23;32.17;;;-1.10;99.90;;;;;;5053726;28;20043;-51
2022/12/10 01:09:32;;;;;;;56.67;31.40;;;-1.00;99.90;;;;;;5057827;28;20478;-51
2022/12/10 01:12:01;;;;;;;62.13;33.70;;;-1.00;99.90;;;;;;5065489;28;20047;-52
2022/12/10 01:14:30;;;;;;;59.47;33.70;;;-1.00;99.90;;;;;;5060486;28;20429;-52
2022/12/10 01:16:58;;;;;;;57.15;32.35;;;-1.00;99.90;;;;;;5060617;28;20116;-54
2022/12/10 01:19:24;;;;;;;59.70;32.20;;;-1.00;99.90;;;;;;5060116;28;20049;-51
2022/12/10 01:21:54;;;;;;;64.43;33.72;;;-1.00;99.90;;;;;;5071681;28;20167;-54
2022/12/10 01:24:21;;;;;;;57.55;31.73;;;-0.90;99.90;;;;;;5052123;28;20398;-55
2022/12/10 01:26:47;;;;;;;59.38;34.15;;;-0.90;99.90;;;;;;5053145;28;20044;-59
2022/12/10 01:29:12;;;;;;;66.43;35.10;;;-0.80;99.90;;;;;;5053762;28;20049;-55
2022/12/10 01:31:38;;;;;;;63.72;34.55;;;-0.80;99.90;;;;;;5053571;28;20037;-52
2022/12/10 01:34:06;;;;;;;61.87;32.33;;;-0.80;99.90;;;;;;5051425;28;20149;-53
2022/12/10 01:36:37;;;;;;;64.72;34.25;;;-0.80;99.90;;;;;;5053139;28;20414;-55
2022/12/10 01:39:06;;;;;;;65.90;33.35;;;-0.70;99.90;;;;;;5052555;28;20040;-52
2022/12/10 01:42:01;;;;;;;64.00;33.92;;;-0.70;99.90;;;;;;5053932;28;20036;-52
2022/12/10 01:44:26;;;;;;;70.32;36.22;;;-0.70;99.90;;;;;;4973407;28;20455;-51
2022/12/10 01:46:54;;;;;;;64.00;35.23;;;-0.60;99.90;;;;;;4971223;28;20035;-56
2022/12/10 01:49:23;;;;;;;66.93;34.90;;;-0.60;99.90;;;;;;4989429;28;20532;-52
2022/12/10 01:51:54;;;;;;;66.70;34.67;;;-0.60;99.90;;;;;;4988981;28;20093;-53
2022/12/10 01:54:24;;;;;;;63.92;33.67;;;-0.60;99.90;;;;;;4989764;28;20116;-55
2022/12/10 01:57:01;;;;;;;73.28;38.22;;;-0.60;99.90;;;;;;4989805;28;20069;-59
2022/12/10 01:59:27;;;;;;;;;;;-0.60;99.90;;;;;;4991180;28;20048;-55
2022/12/10 02:02:04;;;;;;;72.72;35.88;;;-0.60;99.90;;;;;;4989076;28;19918;-56
2022/12/10 02:05:06;;;;;;;66.78;37.00;;;-0.60;99.90;;;;;;4983929;28;20057;-54
2022/12/10 02:07:41;;;;;;;67.53;34.60;;;-0.50;99.90;;;;;;4970784;28;20058;-53
2022/12/10 02:10:36;;;;;;;72.90;38.75;;;-0.50;99.90;;;;;;4971651;28;20320;-52
2022/12/10 02:13:08;;;;;;;67.55;36.67;;;-0.50;99.90;;;;;;4971093;28;20039;-55
2022/12/10 02:15:59;;;;;;;73.70;39.10;;;-0.50;99.90;;;;;;4970918;28;20133;-53
2022/12/10 02:18:29;;;;;;;75.93;38.72;;;-0.50;99.90;;;;;;4972697;28;20404;-50
2022/12/10 02:21:00;;;;;;;68.80;39.25;;;-0.50;99.90;;;;;;5013783;28;20056;-56
2022/12/10 02:23:32;;;;;;;71.28;38.38;;;-0.50;99.90;;;;;;5067671;28;20032;-53
2022/12/10 02:26:11;;;;;;;78.20;40.75;;;-0.50;99.90;;;;;;5057308;28;20041;-55
2022/12/10 02:29:16;;;;;;;74.63;37.03;;;-0.50;99.90;;;;;;5063819;28;20033;-52
2022/12/10 02:31:46;;;;;;;74.60;40.42;;;-0.50;99.90;;;;;;5041817;28;20047;-55
2022/12/10 02:34:14;;;;;;;80.15;41.75;;;-0.50;99.90;;;;;;5054624;28;20045;-54
2022/12/10 02:36:44;;;;;;;71.57;37.70;;;-0.40;99.90;;;;;;5057713;28;20575;-57
2022/12/10 02:39:12;;;;;;;79.55;39.45;;;-0.50;99.90;;;;;;5071343;28;20461;-53
2022/12/10 02:41:45;;;;;;;75.47;37.95;;;-0.40;99.90;;;;;;5071914;28;20036;-56
2022/12/10 02:44:13;;;;;;;73.72;40.03;;;-0.50;99.90;;;;;;5068902;28;20115;-55
2022/12/10 02:46:41;;;;;;;80.88;41.25;;;-0.50;99.90;;;;;;5065696;28;20095;-52
2022/12/10 02:49:08;;;;;;;76.85;38.58;;;-0.50;99.90;;;;;;5050635;28;20047;-54
2022/12/10 02:51:33;;;;;;;78.45;40.83;;;-0.50;99.90;;;;;;5050028;28;20033;-54
2022/12/10 02:54:05;;;;;;;72.90;38.33;;;-0.60;99.90;;;;;;5064111;28;20039;-53
2022/12/10 02:56:35;;;;;;;79.05;39.08;;;-0.60;99.90;;;;;;5071004;28;20041;-53
2022/12/10 02:59:12;;;;;;;85.68;39.70;;;-0.60;99.90;;;;;;5070770;28;20410;-52
2022/12/10 03:01:44;;;;;;;;;;;-0.60;99.90;;;;;;5071105;28;20502;-51
2022/12/10 03:04:23;;;;;;;76.30;37.22;;;-0.60;99.90;;;;;;5069407;28;20045;-51
2022/12/10 03:07:08;;;;;;;78.65;38.95;;;-0.70;99.90;;;;;;5051088;28;20036;-55
2022/12/10 03:09:51;;;;;;;78.93;41.30;;;-0.70;99.90;;;;;;5051155;28;20244;-52
2022/12/10 03:12:30;;;;;;;79.82;39.10;;;-0.70;99.90;;;;;;5049969;28;20095;-52
2022/12/10 03:15:02;;;;;;;79.65;41.65;;;-0.70;99.90;;;;;;5051411;28;20123;-54
2022/12/10 03:17:30;;;;;;;76.47;39.13;;;-0.70;99.90;;;;;;5062524;28;20577;-50
2022/12/10 03:19:58;;;;;;;78.72;39.47;;;-0.80;99.90;;;;;;5064148;28;20114;-52
2022/12/10 03:22:23;;;;;;;76.65;38.30;;;-0.80;99.90;;;;;;5049781;28;20059;-51
2022/12/10 03:24:50;;;;;;;78.00;40.10;;;-0.80;99.90;;;;;;5067527;28;20036;-53
2022/12/10 03:27:16;;;;;;;;;;;-0.80;99.90;;;;;;5067950;28;20044;-53
2022/12/10 03:29:50;;;;;;;76.95;37.33;;;-0.80;99.90;;;;;;5070932;28;20415;-51
2022/12/10 03:32:17;;;;;;;84.15;41.38;;;-0.80;99.90;;;;;;5068927;28;20032;-52
2022/12/10 03:34:44;;;;;;;74.72;40.15;;;-0.80;99.90;;;;;;5067534;28;20040;-53
2022/12/10 03:37:11;;;;;;;78.53;42.00;;;-0.90;99.90;;;;;;5050640;28;20391;-51
2022/12/10 03:39:37;;;;;;;77.65;40.83;;;-0.90;99.90;;;;;;5062222;28;20041;-51
2022/12/10 03:42:05;;;;;;;80.05;40.60;;;-0.90;99.90;;;;;;5050823;28;20045;-57
2022/12/10 03:44:36;;;;;;;74.70;37.35;;;-0.90;99.90;;;;;;5061183;28;20079;-52
2022/12/10 03:47:03;;;;;;;75.40;39.13;;;-1.00;99.90;;;;;;5059873;28;20065;-54
2022/12/10 03:49:29;;;;;;;74.95;37.58;;;-1.00;99.90;;;;;;5050025;28;20525;-51
2022/12/10 03:51:55;;;;;;;75.95;39.30;;;-1.00;99.90;;;;;;5060119;28;20545;-52
2022/12/10 03:54:21;;;;;;;77.60;38.90;;;-1.10;99.90;;;;;;5069555;28;20378;-52
2022/12/10 03:56:46;;;;;;;83.30;38.58;;;-1.10;99.90;;;;;;5068663;28;20273;-54
2022/12/10 03:59:12;;;;;;;90.73;42.47;;;-1.10;99.90;;;;;;5070122;28;20546;-57
2022/12/10 04:01:38;;;;;;;80.40;41.93;;;-1.20;99.90;;;;;;5062905;28;20295;-54
2022/12/10 04:04:05;;;;;;;79.38;41.67;;;-1.20;99.90;;;;;;5048836;28;20313;-53
2022/12/10 04:06:30;;;;;;;;;;;-1.20;99.90;;;;;;5050664;28;20388;-56
2022/12/10 04:08:56;;;;;;;82.90;40.60;;;-1.20;99.90;;;;;;5050542;28;19927;-54
2022/12/10 04:11:22;;;;;;;88.13;43.57;;;-1.20;99.90;;;;;;5055422;28;20539;-53
2022/12/10 04:16:34;;;;;;;80.40;40.78;;;-1.30;99.90;;;;;;5054990;28;20413;-55
2022/12/10 04:19:05;;;;;;;82.57;41.83;;;-1.30;99.90;;;;;;5050660;28;20098;-54
2022/12/10 04:27:10;;;;;;;80.30;40.33;;;-1.30;99.90;;;;;;5048799;28;20052;-54
2022/12/10 04:29:35;;;;;;;85.28;43.90;;;-1.30;99.90;;;;;;5051117;28;20045;-54
2022/12/10 04:32:01;;;;;;;90.70;43.43;;;-1.40;99.90;;;;;;5049876;28;20576;-53
2022/12/10 04:34:27;;;;;;;92.63;40.97;;;-1.40;99.90;;;;;;5060839;28;20040;-53
2022/12/10 04:36:52;;;;;;;90.60;46.57;;;-1.40;99.90;;;;;;5069659;28;20039;-51
2022/12/10 04:39:18;;;;;;;81.17;42.03;;;-1.40;99.90;;;;;;5082206;28;20488;-57
2022/12/10 04:41:46;;;;;;;93.07;43.10;;;-1.40;99.90;;;;;;5049658;28;20509;-50
2022/12/10 04:44:12;;;;;;;88.50;45.22;;;-1.40;99.90;;;;;;5048797;28;20187;-50
2022/12/10 04:46:38;;;;;;;88.15;43.65;;;-1.40;99.90;;;;;;5050924;28;20111;-52
2022/12/10 04:49:04;;;;;;;80.68;39.65;;;-1.50;99.90;;;;;;5057369;28;20529;-53
2022/12/10 04:51:31;;;;;;;91.47;41.17;;;-1.50;99.90;;;;;;5060532;28;20036;-51
2022/12/10 04:53:57;;;;;;;91.88;41.55;;;-1.50;99.90;;;;;;5063440;28;20198;-53
2022/12/10 04:56:22;;;;;;;88.97;39.60;;;-1.50;99.90;;;;;;5056223;28;20123;-51
2022/12/10 04:58:48;;;;;;;78.82;38.17;;;-1.50;99.90;;;;;;5053114;28;20041;-53
2022/12/10 05:01:14;;;;;;;80.30;41.22;;;-1.60;99.90;;;;;;5056671;28;20063;-52
2022/12/10 05:03:40;;;;;;;86.03;40.57;;;-1.60;99.90;;;;;;5068556;28;20036;-53
2022/12/10 05:06:08;;;;;;;83.28;42.25;;;-1.60;99.90;;;;;;5068993;28;20032;-53
2022/12/10 05:08:35;;;;;;;78.47;39.25;;;-1.60;99.90;;;;;;5068678;28;20125;-54
2022/12/10 05:11:03;;;;;;;87.47;42.88;;;-1.60;99.90;;;;;;5055680;28;20040;-51
2022/12/10 05:13:29;;;;;;;81.82;40.90;;;-1.70;99.90;;;;;;5052047;28;20107;-50
2022/12/10 05:15:55;;;;;;;85.47;43.47;;;-1.70;99.90;;;;;;5069533;28;20449;-52
2022/12/10 05:18:21;;;;;;;87.60;41.63;;;-1.70;99.90;;;;;;5068956;28;20048;-51
2022/12/10 05:20:46;;;;;;;86.70;41.20;;;-1.70;99.90;;;;;;5067850;28;20044;-55
2022/12/10 05:23:27;;;;;;;85.73;41.83;;;-1.70;99.90;;;;;;5066660;28;20047;-53
2022/12/10 05:26:06;;;;;;;76.78;39.00;;;-1.70;99.90;;;;;;5069267;28;20052;-53
2022/12/10 05:28:37;;;;;;;88.53;42.47;;;-1.70;99.90;;;;;;5068816;28;20382;-54
2022/12/10 05:31:04;;;;;;;85.57;42.10;;;-1.70;99.90;;;;;;5067945;28;20108;-53
2022/12/10 05:33:30;;;;;;;86.70;43.50;;;-1.70;99.90;;;;;;5066353;28;20082;-53
2022/12/10 05:36:00;;;;;;;83.93;42.90;;;-1.80;99.90;;;;;;5062389;28;20037;-51
2022/12/10 05:38:26;;;;;;;84.38;40.45;;;-1.80;99.90;;;;;;5049143;28;20033;-51
2022/12/10 05:40:52;;;;;;;87.60;41.88;;;-1.80;99.90;;;;;;5049116;28;20112;-51
2022/12/10 05:43:18;;;;;;;92.87;43.73;;;-1.80;99.90;;;;;;5049470;28;20040;-53
2022/12/10 05:45:44;;;;;;;94.70;45.33;;;-1.80;99.90;;;;;;5049923;28;20048;-57
2022/12/10 05:48:12;;;;;;;88.07;43.50;;;-1.80;99.90;;;;;;5051959;28;20079;-54
2022/12/10 05:50:37;;;;;;;86.65;42.67;;;-1.80;99.90;;;;;;5052799;28;20409;-57
2022/12/10 05:53:03;;;;;;;83.72;40.88;;;-1.80;99.90;;;;;;5051391;28;20041;-52
2022/12/10 05:55:31;;;;;;;90.73;43.17;;;-1.80;99.90;;;;;;5066501;28;20044;-52
2022/12/10 05:57:57;;;;;;;83.30;38.67;;;-1.90;99.90;;;;;;5064105;28;20819;-53
2022/12/10 06:00:23;;;;;;;81.85;41.00;;;-2.00;99.90;;;;;;5055600;28;20043;-54
2022/12/10 06:02:49;;;;;;;97.55;47.15;;;-2.00;99.90;;;;;;5066140;28;20041;-53
2022/12/10 06:05:15;;;;;;;93.93;41.63;;;-2.10;99.90;;;;;;5066313;28;20066;-54
2022/12/10 06:07:41;;;;;;;83.60;39.10;;;-2.10;99.90;;;;;;5053127;28;20091;-54
2022/12/10 06:10:07;;;;;;;93.07;43.30;;;-2.10;99.90;;;;;;5053425;28;20117;-53
2022/12/10 06:12:32;;;;;;;87.95;42.35;;;-2.10;99.90;;;;;;5053423;28;20037;-54
2022/12/10 06:15:01;;;;;;;98.75;49.58;;;-2.10;99.90;;;;;;5068324;28;20406;-52
2022/12/10 06:17:26;;;;;;;90.70;44.47;;;-2.10;99.90;;;;;;5071162;28;20036;-54
2022/12/10 06:19:52;;;;;;;94.50;44.13;;;-2.10;99.90;;;;;;5059199;28;20041;-54
2022/12/10 06:22:17;;;;;;;90.80;42.23;;;-2.10;99.90;;;;;;5052456;28;20055;-52
2022/12/10 06:24:43;;;;;;;96.87;42.93;;;-2.10;99.90;;;;;;5075545;28;20067;-54
2022/12/10 06:27:09;;;;;;;93.00;44.63;;;-2.10;99.90;;;;;;5071749;28;20336;-53
2022/12/10 06:29:34;;;;;;;92.97;42.90;;;-2.10;99.90;;;;;;5072310;28;20107;-55
2022/12/10 06:32:00;;;;;;;90.57;42.57;;;-2.00;99.90;;;;;;5071392;28;20120;-51
2022/12/10 06:34:25;;;;;;;101.03;42.93;;;-2.10;99.90;;;;;;5071003;28;20047;-53
2022/12/10 06:36:51;;;;;;;89.53;44.43;;;-2.00;99.90;;;;;;5069776;28;20505;-52
2022/12/10 06:39:16;;;;;;;89.10;43.30;;;-2.10;99.90;;;;;;5071664;28;20033;-50
2022/12/10 06:41:43;;;;;;;89.03;42.30;;;-2.10;99.90;;;;;;5050379;28;20041;-54
2022/12/10 06:44:10;;;;;;;86.10;40.97;;;-2.10;99.90;;;;;;5050412;28;20040;-54
2022/12/10 06:46:35;;;;;;;;;;;-2.10;99.90;;;;;;5053490;28;20494;-51
2022/12/10 06:49:01;;;;;;;92.45;41.40;;;-2.10;99.90;;;;;;5059576;28;19924;-52
2022/12/10 06:51:27;;;;;;;89.70;42.78;;;-2.10;99.90;;;;;;5071931;28;20036;-53
2022/12/10 06:53:53;;;;;;;84.77;42.60;;;-2.20;99.90;;;;;;5058646;28;20376;-55
2022/12/10 06:56:19;;;;;;;88.37;44.03;;;-2.20;99.90;;;;;;5052693;28;20064;-51
2022/12/10 06:58:45;;;;;;;;;;;-2.30;99.90;;;;;;5054136;28;20029;-54
2022/12/10 07:01:14;;;;;;;89.13;42.72;;;-2.20;99.90;;;;;;5065468;28;19927;-52
2022/12/10 07:03:40;;;;;;;93.03;45.08;;;-2.20;99.90;;;;;;5066047;28;20037;-55
2022/12/10 07:06:07;;;;;;;99.28;44.65;;;-2.20;99.90;;;;;;5061038;28;20520;-53
2022/12/10 07:08:33;;;;;;;86.63;42.67;;;-2.20;99.90;;;;;;5053773;28;20069;-51
2022/12/10 07:10:59;;;;;;;97.70;44.92;;;-2.20;99.90;;;;;;5057930;28;20520;-50
2022/12/10 07:13:25;;;;;;;97.53;44.80;;;-2.30;99.90;;;;;;5055626;28;20119;-54
2022/12/10 07:15:50;;;;;;;99.85;47.17;;;-2.20;99.90;;;;;;5052031;28;20520;-51
2022/12/10 07:18:16;;;;;;;110.70;49.90;;;-2.30;99.90;;;;;;5064938;28;20040;-53
2022/12/10 07:20:41;;;;;;;101.23;46.43;;;-2.20;99.90;;;;;;5070983;28;20497;-51
2022/12/10 07:23:07;;;;;;;101.63;43.83;;;-2.10;99.90;;;;;;5069213;28;20040;-51
2022/12/10 07:25:33;;;;;;;104.63;47.13;;;-2.20;99.90;;;;;;5070787;28;20042;-52
2022/12/10 07:27:59;;;;;;;115.63;47.25;;;-2.10;99.90;;;;;;5070390;28;20451;-54
2022/12/10 07:30:24;;;;;;;102.13;46.53;;;-2.10;99.90;;;;;;5069011;28;20040;-54
2022/12/10 07:32:50;;;;;;;103.23;48.33;;;-2.10;99.90;;;;;;5070649;28;20040;-57
2022/12/10 07:35:16;;;;;;;95.67;44.70;;;-2.00;99.90;;;;;;5069795;28;20033;-51
2022/12/10 07:37:41;;;;;;;107.23;48.57;;;-2.00;99.90;;;;;;5050169;28;20086;-54
2022/12/10 07:40:07;;;;;;;101.63;48.50;;;-2.00;99.90;;;;;;5052174;28;20101;-56
2022/12/10 07:42:33;;;;;;;108.68;48.67;;;-2.00;99.90;;;;;;5050796;28;20487;-54
2022/12/10 07:44:59;;;;;;;101.40;46.57;;;-2.00;99.90;;;;;;5061336;28;20093;-56
2022/12/10 07:47:24;;;;;;;97.70;45.70;;;-1.90;99.90;;;;;;5069910;28;20068;-55
2022/12/10 07:49:50;;;;;;;105.50;49.53;;;-1.90;99.90;;;;;;5066745;28;20121;-53
2022/12/10 07:52:15;;;;;;;99.87;46.77;;;-1.80;99.90;;;;;;5062218;28;20068;-55
2022/12/10 07:54:41;;;;;;;99.60;46.53;;;-1.70;99.90;;;;;;5062078;28;20044;-54
2022/12/10 07:57:06;;;;;;;102.83;48.20;;;-1.70;99.90;;;;;;5068627;28;20049;-55
2022/12/10 07:59:32;;;;;;;106.20;49.33;;;-1.70;99.90;;;;;;5067760;28;20048;-55
2022/12/10 08:01:58;;;;;;;107.30;49.33;;;-1.60;99.90;;;;;;5053030;28;20044;-57
2022/12/10 08:04:23;;;;;;;105.37;48.70;;;-1.60;99.90;;;;;;5057871;28;20040;-54
2022/12/10 08:06:49;;;;;;;101.87;45.73;;;-1.60;99.90;;;;;;5054199;28;20032;-57
2022/12/10 08:09:14;;;;;;;103.43;48.83;;;-1.50;99.90;;;;;;5053246;28;20044;-54
2022/12/10 08:11:40;;;;;;;119.07;50.03;;;-1.50;99.90;;;;;;5065940;28;20044;-52
2022/12/10 08:14:05;;;;;;;117.70;54.63;;;-1.50;99.90;;;;;;5054052;28;20103;-54
2022/12/10 08:16:32;;;;;;;115.37;49.93;;;-1.40;99.90;;;;;;5068108;28;20028;-51
2022/12/10 08:19:00;;;;;;;97.78;46.70;;;-1.30;99.90;;;;;;5062684;28;20037;-51
2022/12/10 08:21:28;;;;;;;96.60;46.00;;;-1.30;99.90;;;;;;5053850;28;20127;-51
2022/12/10 08:23:54;;;;;;;106.78;48.53;;;-1.30;99.90;;;;;;5065406;28;20044;-51
2022/12/10 08:26:25;;;;;;;96.75;46.65;;;-1.20;99.90;;;;;;5062971;28;20037;-56
2022/12/10 08:28:52;;;;;;;97.00;46.50;;;-1.20;99.90;;;;;;5065127;28;20616;-51
2022/12/10 08:31:21;;;;;;;96.97;46.20;;;-1.20;99.90;;;;;;5052043;28;20502;-52
2022/12/10 08:33:46;;;;;;;92.90;47.25;;;-1.10;99.90;;;;;;5065450;28;20036;-52
2022/12/10 08:36:14;;;;;;;92.93;43.67;;;-1.10;99.90;;;;;;5066631;28;20393;-53
2022/12/10 08:38:40;;;;;;;100.28;47.63;;;-1.10;99.90;;;;;;5068984;28;20051;-53
2022/12/10 08:41:18;;;;;;;99.65;46.55;;;-1.00;99.90;;;;;;5060974;28;20135;-52
2022/12/10 08:43:44;;;;;;;91.63;45.03;;;-1.00;99.90;;;;;;5055992;28;20044;-51
2022/12/10 08:46:11;;;;;;;90.40;45.20;;;-1.00;99.90;;;;;;5069447;28;20052;-51
2022/12/10 08:48:38;;;;;;;97.63;47.35;;;-0.90;99.90;;;;;;5069363;28;20037;-50
2022/12/10 08:51:04;;;;;;;;;;;-0.90;99.90;;;;;;5068283;28;20028;-51
2022/12/10 08:53:30;;;;;;;93.30;45.40;;;-0.90;99.90;;;;;;5068280;28;19916;-50
2022/12/10 08:55:55;;;;;;;90.70;43.87;;;-0.80;99.90;;;;;;5069946;28;20045;-52
2022/12/10 08:58:21;;;;;;;89.53;46.90;;;-0.80;99.90;;;;;;5052305;28;20040;-54
2022/12/10 09:00:48;;;;;;;94.93;44.13;;;-0.80;99.90;;;;;;5057197;28;20458;-51
2022/12/10 09:03:14;;;;;;;93.32;46.40;;;-0.80;99.90;;;;;;5060516;28;20284;-50
2022/12/10 09:05:41;;;;;;;95.07;46.40;;;-0.70;99.90;;;;;;5057929;28;20095;-50
2022/12/10 09:08:07;;;;;;;97.70;45.63;;;-0.70;99.90;;;;;;5066427;28;20505;-51
2022/12/10 09:10:32;;;;;;;87.57;44.07;;;-0.60;99.90;;;;;;5068328;28;20072;-51
2022/12/10 09:12:58;;;;;;;93.63;46.03;;;-0.60;99.90;;;;;;5059217;28;20048;-55
2022/12/10 09:15:23;;;;;;;88.10;44.73;;;-0.50;99.90;;;;;;5061977;28;20076;-55
2022/12/10 09:17:49;;;;;;;94.77;42.27;;;-0.30;99.90;;;;;;5050577;28;20037;-50
2022/12/10 09:20:15;;;;;;;81.17;41.77;;;-0.10;99.90;;;;;;5049145;28;20041;-54
2022/12/10 09:22:40;;;;;;;94.05;46.05;;;-0.10;99.90;;;;;;5055107;28;20169;-55
2022/12/10 09:25:09;;;;;;;81.03;43.07;;;0.00;99.90;;;;;;5070373;28;20045;-53
2022/12/10 09:27:36;;;;;;;87.45;43.80;;;0.00;99.90;;;;;;5070429;28;20055;-51
2022/12/10 09:30:02;;;;;;;80.32;41.78;;;0.10;99.90;;;;;;5071017;28;20447;-53
2022/12/10 09:32:28;;;;;;;78.03;38.83;;;0.30;99.90;;;;;;5067416;28;20425;-53
2022/12/10 09:34:54;;;;;;;90.37;46.47;;;0.90;99.90;;;;;;5051765;28;20039;-56
2022/12/10 09:37:19;;;;;;;71.55;39.65;;;1.30;99.90;;;;;;5054247;28;20279;-51
2022/12/10 09:39:45;;;;;;;75.30;39.40;;;1.70;99.90;;;;;;5053304;28;20118;-55
2022/12/10 09:42:48;;;;;;;77.33;39.97;;;1.90;99.90;;;;;;5053935;28;20033;-54
2022/12/10 09:45:22;;;;;;;71.88;36.20;;;2.00;99.90;;;;;;5033464;28;20310;-53
2022/12/10 09:47:53;;;;;;;76.88;43.47;;;2.10;99.90;;;;;;5053115;28;20496;-54
2022/12/10 09:50:28;;;;;;;67.90;36.83;;;1.90;99.90;;;;;;5051380;28;20073;-54
2022/12/10 09:52:55;;;;;;;69.72;40.33;;;1.70;99.90;;;;;;5055711;28;20037;-53
2022/12/10 09:55:36;;;;;;;77.03;41.83;;;1.50;99.90;;;;;;5072619;28;20048;-54
2022/12/10 09:58:05;;;;;;;69.22;40.90;;;1.40;99.90;;;;;;5070908;28;20040;-56
2022/12/10 10:00:35;;;;;;;75.68;43.13;;;1.10;99.90;;;;;;5070128;28;20046;-54
2022/12/10 10:03:01;;;;;;;74.95;39.65;;;1.00;99.90;;;;;;5068011;28;20859;-54
2022/12/10 10:05:39;;;;;;;;;;;0.90;99.90;;;;;;5060112;28;20037;-55
2022/12/10 10:24:25;;;;;;;81.30;42.15;;;0.50;99.90;;;;;;5085663;27;20368;-54
2022/12/10 10:26:59;;;;;;;100.95;42.65;;;0.40;99.90;;;;;;5086557;28;20532;-54
2022/12/10 10:29:26;;;;;;;84.72;42.65;;;0.40;99.90;;;;;;5079901;28;20052;-54
2022/12/10 10:32:10;;;;;;;80.22;42.13;;;0.30;99.90;;;;;;5066984;28;20040;-56
2022/12/10 10:34:39;;;;;;;85.28;43.90;;;0.40;99.90;;;;;;5053699;28;20029;-52
2022/12/10 10:37:05;;;;;;;89.00;44.63;;;0.40;99.90;;;;;;5066099;28;20068;-52
2022/12/10 10:39:34;;;;;;;90.78;48.70;;;0.40;99.90;;;;;;5065802;28;20375;-50
2022/12/10 10:42:09;;;;;;;83.22;43.83;;;0.40;99.90;;;;;;5064666;28;20037;-55
2022/12/10 10:44:37;;;;;;;89.95;44.38;;;0.40;99.90;;;;;;5060592;28;20051;-57
2022/12/10 10:47:24;;;;;;;94.25;47.53;;;0.40;99.90;;;;;;5063051;28;20049;-51
2022/12/10 10:49:50;;;;;;;85.72;43.75;;;0.40;99.90;;;;;;5064343;28;20055;-54
2022/12/10 10:52:17;;;;;;;85.43;45.80;;;0.40;99.90;;;;;;5064266;28;20494;-54
2022/12/10 10:54:44;;;;;;;85.10;44.70;;;0.40;99.90;;;;;;5054894;28;20132;-55
2022/12/10 10:57:23;;;;;;;89.80;47.10;;;0.40;99.90;;;;;;5055219;28;20171;-51
2022/12/10 10:59:52;;;;;;;93.18;48.17;;;0.30;99.90;;;;;;5053898;28;20231;-52
2022/12/10 11:02:29;;;;;;;88.65;46.42;;;0.30;99.90;;;;;;5064568;28;20241;-53
2022/12/10 11:04:58;;;;;;;100.38;48.03;;;0.20;99.90;;;;;;5062727;28;20067;-54
2022/12/10 11:07:36;;;;;;;93.95;50.53;;;0.20;99.90;;;;;;5063763;28;20052;-52
2022/12/10 11:10:14;;;;;;;94.18;47.78;;;0.20;99.90;;;;;;5061155;28;20056;-51
2022/12/10 11:12:40;;;;;;;92.13;47.15;;;0.20;99.90;;;;;;5064273;28;20383;-52
2022/12/10 11:15:34;;;;;;;94.95;46.67;;;0.20;99.90;;;;;;5063712;28;20055;-51
2022/12/10 11:18:01;;;;;;;90.40;44.95;;;0.10;99.90;;;;;;5060807;28;20037;-51
2022/12/10 11:20:31;;;;;;;;;;;0.10;99.90;;;;;;5065568;28;20402;-54
2022/12/10 11:22:59;;;;;;;91.40;45.58;;;0.00;99.90;;;;;;5062158;28;20023;-53
2022/12/10 11:25:47;;;;;;;100.32;49.30;;;0.00;99.90;;;;;;5064752;28;20108;-51
2022/12/10 11:28:31;;;;;;;;;;;-0.10;99.90;;;;;;5064984;28;20033;-52
2022/12/10 11:31:29;;;;;;;91.60;45.03;;;-0.10;99.90;;;;;;5061442;28;20000;-52
2022/12/10 11:34:17;;;;;;;87.63;42.53;;;-0.10;99.90;;;;;;5057074;28;20052;-51
2022/12/10 11:36:51;;;;;;;93.28;43.60;;;-0.10;99.90;;;;;;5051394;28;20116;-52
2022/12/10 11:39:44;;;;;;;94.00;45.53;;;-0.10;99.90;;;;;;5049534;28;20041;-54
2022/12/10 11:42:37;;;;;;;97.13;44.33;;;-0.20;99.90;;;;;;5032157;28;20037;-57
2022/12/10 11:45:45;;;;;;;97.68;45.75;;;-0.20;99.90;;;;;;5068210;28;20043;-57
2022/12/10 11:48:29;;;;;;;102.63;45.58;;;-0.20;99.90;;;;;;5050006;28;20105;-54
2022/12/10 11:51:06;;;;;;;104.07;47.92;;;-0.20;99.90;;;;;;5052008;28;20044;-52
2022/12/10 11:53:58;;;;;;;97.60;46.78;;;-0.20;99.90;;;;;;5051398;28;20095;-55
2022/12/10 11:56:33;;;;;;;100.32;47.70;;;-0.20;99.90;;;;;;5051502;28;20073;-54
2022/12/10 11:59:29;;;;;;;96.70;44.72;;;-0.30;99.90;;;;;;5046250;28;20042;-55
2022/12/10 12:02:14;;;;;;;100.18;47.38;;;-0.30;99.90;;;;;;5051743;28;20036;-53
2022/12/10 12:05:16;;;;;;;93.03;41.90;;;-0.40;99.90;;;;;;5050412;28;20132;-54
2022/12/10 12:08:30;;;;;;;88.18;42.90;;;-0.40;99.90;;;;;;5048138;28;20965;-56
2022/12/10 12:11:27;;;;;;;93.65;43.20;;;-0.30;99.90;;;;;;5007012;28;20041;-56
2022/12/10 12:14:07;;;;;;;93.18;42.75;;;-0.30;99.90;;;;;;5049364;28;20120;-57
2022/12/10 12:16:43;;;;;;;85.57;41.70;;;-0.30;99.90;;;;;;5032050;28;20391;-58
2022/12/10 12:19:28;;;;;;;89.13;43.13;;;-0.30;99.90;;;;;;5046144;28;20048;-58
2022/12/10 12:21:55;;;;;;;95.57;44.28;;;-0.40;99.90;;;;;;5051695;28;20409;-55
2022/12/10 12:24:29;;;;;;;90.53;44.42;;;-0.40;99.90;;;;;;5050376;28;20048;-54
2022/12/10 12:27:00;;;;;;;97.63;43.78;;;-0.40;99.90;;;;;;5051389;28;20460;-54
2022/12/10 12:29:33;;;;;;;90.05;45.13;;;-0.40;99.90;;;;;;5049296;28;20072;-57
2022/12/10 12:32:17;;;;;;;97.07;45.25;;;-0.40;99.90;;;;;;5051137;28;20440;-55
2022/12/10 12:34:50;;;;;;;99.55;46.03;;;-0.40;99.90;;;;;;5049835;28;20124;-54
2022/12/10 12:37:18;;;;;;;108.95;47.95;;;-0.40;99.90;;;;;;5051217;28;20120;-57
2022/12/10 12:39:48;;;;;;;94.25;44.78;;;-0.40;99.90;;;;;;5051422;28;20032;-56
2022/12/10 12:42:29;;;;;;;102.10;48.80;;;-0.30;99.90;;;;;;5051144;28;20386;-57
2022/12/10 12:45:03;;;;;;;103.53;49.50;;;-0.40;99.90;;;;;;5048167;28;20041;-55
2022/12/10 12:47:28;;;;;;;102.38;45.00;;;-0.40;99.90;;;;;;5048683;28;20045;-55
2022/12/10 12:49:57;;;;;;;109.73;49.87;;;-0.40;99.90;;;;;;5050524;28;20171;-58
2022/12/10 12:52:48;;;;;;;110.35;47.65;;;-0.40;99.90;;;;;;5050961;28;20076;-54
2022/12/10 12:55:22;;;;;;;101.22;47.08;;;-0.40;99.90;;;;;;5036779;28;20634;-56
2022/12/10 12:57:56;;;;;;;98.85;43.10;;;-0.40;99.90;;;;;;5082470;28;20037;-58
2022/12/10 13:00:23;;;;;;;96.85;42.92;;;-0.40;99.90;;;;;;5048050;28;20165;-59
2022/12/10 13:03:18;;;;;;;90.68;42.33;;;-0.30;99.90;;;;;;5050206;28;20041;-59
2022/12/10 13:05:44;;;;;;;89.18;41.83;;;-0.30;99.90;;;;;;5026959;28;20565;-55
2022/12/10 13:08:25;;;;;;;87.93;42.53;;;-0.30;99.90;;;;;;5049855;28;20116;-57
2022/12/10 13:11:18;;;;;;;84.32;39.97;;;-0.30;99.90;;;;;;5050407;28;20079;-60